Ackermanville, PA

4:41 PM EST on December 17, 2014 (GMT -0500)
Callie's Farm | Change Station
CLOSE
Current Station
Personal Weather Station
Location: Bangor, PA
Elevation: 725 ft
Nearby Weather Stations

Elev 725 ft 40.87 °N, 75.17 °W | Updated 1 minute ago

Overcast
Overcast
43.8 °F
Feels Like 44 °F
N
2.0
Wind Variable Wind from NNE
Gusts 13.0 mph

Today
High -- | Low -- °F
--% Chance of Precip.
Yesterday
High -- | Low -- °F
Precip. -- in
7:19 AM 4:34 PM
Waning Crescent, 19% visible
Pressure 29.90 in
Visibility 10.0 miles
Clouds Mostly Cloudy 4100 ft
Windchill 44 °F
Dew Point 40 °F
Humidity 87%
Rainfall 0.02 in
Snow Depth Not available.
UV 0 out of 12
Pollen .10 out of 12
Air Quality Not available.
Flu Activity Not available.
METAR KABE 172051Z 27014G20KT 10SM BKN041 08/M01 A2989 RMK AO2 SLP124 T00781006 53012

More Conditions Fewer Conditions

Pressure 29.90 in
Visibility 10.0 miles
Clouds Mostly Cloudy 4100 ft
Windchill 44 °F
Dew Point 40 °F
Humidity 87%
Rainfall 0.02 in
Snow Depth Not available.
UV 0 out of 12
Pollen .10 out of 12
Air Quality Not available.
Flu Activity Not available.
METAR KABE 172051Z 27014G20KT 10SM BKN041 08/M01 A2989 RMK AO2 SLP124 T00781006 53012

More Conditions Fewer Conditions

Nowcast | as of 3:00 PM EST on December 17, 2014

Some sprinkles or a brief light rain shower will be possible during the rest of the afternoon.

×

10-Day Weather Forecast

Almanac

Astronomy

Dec. 17, 2014 Rise Set
Actual Time
Civil Twilight
Nautical Twilight
Astronomical Twilight
Moon
Length of Visible Light
Length of Day
Tomorrow will be .
, % of the Moon is Illuminated

Today's Extremes

State Highs State Lows

Community

WunderPhotos

Upload Photos

1,778,807 photos uploaded!

WunderBlogs® & News

Nearby

Air Quality

  Air Quality AQ Index Pollutant
Not available.

Snow Depth

Station Depth Elevation

Earthquake Activity

City Distance Mag. Time & Date
Minimum magnitude displayed is 2.5.

Coastal Water Temperatures

Place Temperature

Nearby Weather Stations